Time;durP1;ratioP1;P1;durP2;ratioP2;P2;SDS_P1;SDS_P2;PMS_P1;PMS_P2;Temp;Humidity;BMP_temperature;BMP_pressure;BME280_temperature;BME280_humidity;BME280_pressure;Samples;Min_cycle;Max_cycle;Signal;HPM_P1;HPM_P2
2023/01/11 00:01:26;;;;;;;2.67;0.40;;;;;;;8.10;77.93;98803.97;4947947;28;20227;-62
2023/01/11 00:03:54;;;;;;;2.50;0.40;;;;;;;8.11;79.73;98800.44;4951139;28;20225;-61
2023/01/11 00:06:21;;;;;;;1.77;0.40;;;;;;;8.18;81.16;98792.91;4949204;28;20221;-60
2023/01/11 00:08:47;;;;;;;0.77;0.40;;;;;;;8.19;80.83;98798.97;4948241;28;20222;-62
2023/01/11 00:11:15;;;;;;;2.40;0.50;;;;;;;8.19;81.06;98785.97;4949647;28;20225;-61
2023/01/11 00:13:42;;;;;;;0.70;0.40;;;;;;;8.18;82.07;98789.50;4952267;28;20761;-62
2023/01/11 00:16:09;;;;;;;2.03;0.30;;;;;;;8.22;81.86;98783.09;4948874;28;20649;-62
2023/01/11 00:18:36;;;;;;;0.83;0.30;;;;;;;8.19;81.41;98789.38;4951380;28;20238;-61
2023/01/11 00:21:05;;;;;;;2.17;0.50;;;;;;;8.19;81.25;98785.97;4947747;28;20240;-61
2023/01/11 00:23:32;;;;;;;0.60;0.30;;;;;;;8.23;82.39;98787.34;4950313;28;20242;-61
2023/01/11 00:25:59;;;;;;;3.10;0.40;;;;;;;8.26;81.26;98784.47;4951676;28;20226;-62
2023/01/11 00:28:25;;;;;;;1.83;0.40;;;;;;;8.32;82.57;98802.16;4948321;28;20241;-62
2023/01/11 00:30:52;;;;;;;2.33;0.40;;;;;;;8.40;80.16;98788.47;4955691;28;20689;-62
2023/01/11 00:33:18;;;;;;;0.50;0.40;;;;;;;8.41;80.65;98796.16;4952054;28;20230;-61
2023/01/11 00:35:45;;;;;;;0.83;0.37;;;;;;;8.40;80.87;98794.50;4954453;28;20241;-62
2023/01/11 00:38:42;;;;;;;0.60;0.30;;;;;;;8.37;81.66;98793.94;4953091;28;20287;-62
2023/01/11 00:47:55;;;;;;;2.40;0.40;;;;;;;8.37;80.85;98796.53;4960211;28;20320;-62
2023/01/11 00:49:15;;;;;;;1.43;0.40;;;;;;;8.34;79.85;98766.44;4952933;28;20694;-61
2023/01/11 00:51:41;;;;;;;1.70;0.37;;;;;;;8.38;79.70;98765.22;4955993;28;20276;-62
2023/01/11 00:54:09;;;;;;;1.20;0.30;;;;;;;8.38;79.72;98759.16;4952694;28;20222;-62
2023/01/11 00:56:36;;;;;;;0.93;0.30;;;;;;;8.41;79.73;98751.94;4957549;28;20637;-61
2023/01/11 00:59:04;;;;;;;0.87;0.50;;;;;;;8.47;80.48;98745.38;4953010;28;20321;-61
2023/01/11 01:01:31;;;;;;;0.73;0.40;;;;;;;8.48;80.83;98734.00;4952881;28;20325;-62
2023/01/11 01:03:57;;;;;;;1.37;0.30;;;;;;;8.49;80.55;98742.66;4957722;28;20239;-61
2023/01/11 01:06:24;;;;;;;1.43;0.37;;;;;;;8.55;81.17;98737.75;4958006;28;20243;-61
2023/01/11 01:08:51;;;;;;;3.50;0.50;;;;;;;8.55;80.98;98721.28;4966496;28;20792;-61
2023/01/11 01:11:19;;;;;;;0.53;0.20;;;;;;;8.59;81.76;98720.06;4961027;28;20253;-61
2023/01/11 01:16:31;;;;;;;1.23;0.43;;;;;;;8.71;81.03;98726.78;4962669;28;20930;-62
2023/01/11 01:18:58;;;;;;;1.33;0.53;;;;;;;8.75;81.28;98726.50;4967400;28;20230;-62
2023/01/11 01:21:25;;;;;;;0.93;0.20;;;;;;;8.76;81.69;98726.41;4963096;28;20253;-62
2023/01/11 01:23:52;;;;;;;0.97;0.30;;;;;;;8.78;81.77;98724.47;4966306;28;20233;-61
2023/01/11 01:26:20;;;;;;;1.80;0.30;;;;;;;8.88;80.72;98732.28;4963904;28;20693;-61
2023/01/11 01:28:47;;;;;;;0.83;0.20;;;;;;;8.84;81.08;98725.69;4966497;28;20242;-61
2023/01/11 01:31:14;;;;;;;2.43;0.50;;;;;;;8.88;80.25;98721.06;4963004;28;20820;-62
2023/01/11 01:33:42;;;;;;;2.37;0.30;;;;;;;8.88;80.67;98705.44;4966770;28;20699;-62
2023/01/11 01:36:09;;;;;;;1.53;0.30;;;;;;;8.83;80.67;98698.03;4963419;28;20288;-62
2023/01/11 01:38:36;;;;;;;0.27;0.13;;;;;;;8.81;81.94;98705.97;4964715;28;20391;-62
2023/01/11 01:41:02;;;;;;;1.80;0.40;;;;;;;8.84;81.82;98692.69;4962808;28;20763;-62
2023/01/11 01:46:27;;;;;;;0.77;0.30;;;;;;;8.92;82.47;98702.41;5070473;27;29374;-62
2023/01/11 01:48:57;;;;;;;1.57;0.30;;;;;;;8.98;81.25;98706.25;5048710;28;20244;-62
2023/01/11 01:51:29;;;;;;;1.60;0.20;;;;;;;9.04;81.26;98716.09;5056767;28;20237;-62
2023/01/11 01:54:01;;;;;;;0.57;0.20;;;;;;;9.05;81.96;98706.50;5090014;28;20217;-61
2023/01/11 01:56:31;;;;;;;1.03;0.33;;;;;;;8.96;83.35;98716.78;5086124;28;20271;-62
2023/01/11 01:59:02;;;;;;;0.73;0.30;;;;;;;8.98;82.95;98712.25;5083631;28;20280;-61
2023/01/11 02:01:49;;;;;;;8.60;0.40;;;;;;;9.05;83.25;98693.50;5083006;28;20286;-61
2023/01/11 02:04:21;;;;;;;1.37;0.30;;;;;;;9.12;82.88;98687.56;5087609;28;20312;-62
2023/01/11 02:06:49;;;;;;;2.10;0.30;;;;;;;9.21;82.10;98698.94;5090448;28;20225;-62
2023/01/11 02:09:23;;;;;;;1.40;0.33;;;;;;;9.22;82.33;98704.97;5082716;28;20644;-62
2023/01/11 02:11:51;;;;;;;0.97;0.30;;;;;;;9.26;81.84;98714.13;5087973;28;20237;-62
2023/01/11 02:14:20;;;;;;;0.60;0.20;;;;;;;9.28;83.18;98720.03;5083508;28;20226;-62
2023/01/11 02:16:48;;;;;;;1.37;0.30;;;;;;;9.27;84.21;98721.81;5088743;28;20317;-62
2023/01/11 02:19:27;;;;;;;1.00;0.30;;;;;;;9.27;84.74;98747.03;5085566;28;20278;-61
2023/01/11 02:22:16;;;;;;;1.03;0.30;;;;;;;9.18;86.18;98735.69;5083223;28;20272;-61
2023/01/11 02:25:04;;;;;;;1.13;0.20;;;;;;;9.11;88.21;98752.81;5083041;28;20225;-61
2023/01/11 02:27:54;;;;;;;1.37;0.80;;;;;;;8.85;91.90;98750.78;5078686;28;20317;-62
2023/01/11 02:30:29;;;;;;;1.57;0.47;;;;;;;8.59;94.19;98737.47;5085114;28;20225;-61
2023/01/11 02:33:04;;;;;;;1.70;0.40;;;;;;;8.47;96.57;98729.75;5087433;28;20332;-63
2023/01/11 02:35:41;;;;;;;1.63;0.47;;;;;;;8.46;97.65;98730.72;5078399;28;20232;-62
2023/01/11 02:38:16;;;;;;;1.10;0.40;;;;;;;8.43;98.48;98728.38;5084415;28;20230;-62
2023/01/11 02:40:52;;;;;;;0.63;0.30;;;;;;;8.38;100.00;98736.59;5091285;28;20240;-62
2023/01/11 02:46:21;;;;;;;1.10;0.40;;;;;;;8.31;100.00;98716.44;5081966;28;20601;-61
2023/01/11 02:48:56;;;;;;;2.47;0.80;;;;;;;8.32;99.77;98703.31;5091068;28;20693;-61
2023/01/11 02:51:28;;;;;;;1.97;0.50;;;;;;;8.40;99.16;98700.88;5085060;28;20630;-63
2023/01/11 02:53:58;;;;;;;2.17;0.47;;;;;;;8.41;98.91;98699.06;5087494;28;20241;-61
2023/01/11 02:56:29;;;;;;;0.50;0.30;;;;;;;8.40;99.90;98671.41;5075492;28;20704;-62
2023/01/11 02:58:58;;;;;;;1.23;0.33;;;;;;;8.39;99.31;98664.56;5069007;28;20235;-62
2023/01/11 03:01:25;;;;;;;0.90;0.30;;;;;;;8.37;98.59;98662.13;5070811;28;20652;-62
2023/01/11 03:03:53;;;;;;;0.53;0.30;;;;;;;8.44;98.86;98672.00;5080503;28;20238;-62
2023/01/11 03:06:22;;;;;;;1.97;0.40;;;;;;;8.57;98.74;98659.53;5069532;28;20645;-61
2023/01/11 03:09:14;;;;;;;0.33;0.30;;;;;;;8.68;96.90;98664.59;5069011;28;20220;-62
2023/01/11 03:14:50;;;;;;;0.40;0.30;;;;;;;8.95;95.82;98649.25;5070378;28;20231;-62
2023/01/11 03:17:31;;;;;;;1.73;0.37;;;;;;;8.94;96.25;98658.84;5064169;28;20227;-62
2023/01/11 03:20:07;;;;;;;0.33;0.30;;;;;;;9.05;95.51;98664.84;5065989;28;21233;-62
2023/01/11 03:22:42;;;;;;;0.17;0.10;;;;;;;9.06;96.59;98656.06;5065568;28;20243;-61
2023/01/11 03:25:17;;;;;;;1.10;0.30;;;;;;;9.05;95.92;98659.63;5062861;28;20235;-61
2023/01/11 03:27:53;;;;;;;1.53;0.20;;;;;;;9.14;94.66;98648.38;5071712;28;20245;-62
2023/01/11 03:30:27;;;;;;;0.73;0.30;;;;;;;9.10;95.30;98650.44;5071401;28;20631;-62
2023/01/11 03:33:03;;;;;;;0.70;0.20;;;;;;;9.13;93.79;98639.72;5079936;28;20278;-62
2023/01/11 03:35:37;;;;;;;0.60;0.40;;;;;;;9.15;93.19;98631.78;5072628;28;20263;-62
2023/01/11 03:38:10;;;;;;;1.20;0.33;;;;;;;9.12;93.90;98639.88;5072494;28;20221;-63
2023/01/11 03:40:39;;;;;;;0.57;0.27;;;;;;;9.11;93.29;98652.06;5068299;28;20227;-62
2023/01/11 03:43:11;;;;;;;0.60;0.20;;;;;;;9.16;93.55;98665.50;5070101;28;20234;-62
2023/01/11 03:45:41;;;;;;;0.53;0.30;;;;;;;9.20;93.51;98668.66;5064985;28;20238;-62
2023/01/11 03:48:13;;;;;;;0.60;0.20;;;;;;;9.24;93.10;98667.41;5064401;28;20231;-62
2023/01/11 03:50:41;;;;;;;0.70;0.30;;;;;;;9.29;93.64;98680.00;5069309;28;20231;-62
2023/01/11 03:53:09;;;;;;;2.05;0.30;;;;;;;9.31;93.21;98659.84;5071179;28;20473;-62
2023/01/11 03:55:40;;;;;;;0.20;0.20;;;;;;;9.31;93.56;98659.84;5072200;28;20230;-62
2023/01/11 03:58:07;;;;;;;0.50;0.20;;;;;;;9.37;92.38;98669.69;5080042;28;20568;-62
2023/01/11 04:00:35;;;;;;;0.27;0.27;;;;;;;9.38;92.27;98665.31;5066485;28;20240;-61
2023/01/11 04:03:02;;;;;;;1.33;0.30;;;;;;;9.42;91.46;98677.09;5066039;28;20225;-62
2023/01/11 04:05:30;;;;;;;0.60;0.30;;;;;;;9.48;90.84;98671.31;5072856;28;20223;-62
2023/01/11 04:07:57;;;;;;;1.50;0.20;;;;;;;9.55;90.33;98671.56;5073446;28;20288;-62
2023/01/11 04:10:23;;;;;;;1.70;0.20;;;;;;;9.57;89.99;98667.03;5069105;28;20713;-62
2023/01/11 04:12:50;;;;;;;0.30;0.20;;;;;;;9.59;89.25;98657.28;5075234;28;20226;-62
2023/01/11 04:15:17;;;;;;;0.33;0.20;;;;;;;9.64;88.43;98655.06;5070955;28;20210;-62
2023/01/11 04:17:43;;;;;;;0.70;0.20;;;;;;;9.56;88.73;98640.13;5078020;28;20271;-62
2023/01/11 04:20:11;;;;;;;0.40;0.30;;;;;;;9.52;89.13;98635.38;5070933;28;20226;-62
2023/01/11 04:22:39;;;;;;;0.30;0.20;;;;;;;9.51;88.40;98626.75;5077843;28;20241;-62
2023/01/11 04:25:07;;;;;;;1.13;0.30;;;;;;;9.45;88.77;98624.72;5074565;28;20229;-62
2023/01/11 04:27:34;;;;;;;0.30;0.20;;;;;;;9.41;89.72;98610.31;5078700;28;20230;-61
2023/01/11 04:30:00;;;;;;;0.60;0.30;;;;;;;9.41;88.90;98621.56;5076349;28;20223;-62
2023/01/11 04:32:27;;;;;;;1.57;0.20;;;;;;;9.43;89.00;98624.84;5239848;22;20234;-62
2023/01/11 04:34:53;;;;;;;0.40;0.10;;;;;;;9.42;89.10;98625.00;5051634;28;20540;-62
2023/01/11 04:37:20;;;;;;;0.60;0.20;;;;;;;9.47;88.64;98608.91;5047075;28;20284;-61
2023/01/11 04:39:48;;;;;;;0.30;0.30;;;;;;;9.42;89.28;98615.38;5055062;28;20239;-63
2023/01/11 04:42:20;;;;;;;0.83;0.10;;;;;;;9.42;88.63;98622.38;5046773;28;20223;-62
2023/01/11 04:44:47;;;;;;;0.10;0.10;;;;;;;9.47;88.95;98627.16;5048082;28;20707;-61
2023/01/11 04:47:14;;;;;;;0.77;0.10;;;;;;;9.43;88.76;98611.81;5048842;28;20582;-62
2023/01/11 04:49:41;;;;;;;0.87;0.30;;;;;;;9.47;88.22;98612.34;5049035;28;20296;-61
2023/01/11 04:52:09;;;;;;;0.30;0.20;;;;;;;9.48;88.66;98611.41;5047435;28;20703;-61
2023/01/11 04:54:36;;;;;;;1.03;0.10;;;;;;;9.52;87.70;98610.13;5050518;28;20230;-62
2023/01/11 04:57:04;;;;;;;0.93;0.27;;;;;;;9.48;88.23;98611.41;5046519;28;20634;-62
2023/01/11 04:59:31;;;;;;;0.20;0.10;;;;;;;9.44;89.05;98616.06;5047565;28;20589;-62
2023/01/11 05:01:57;;;;;;;0.20;0.20;;;;;;;9.52;87.89;98615.34;5049748;28;20232;-61
2023/01/11 05:04:24;;;;;;;0.87;0.10;;;;;;;9.55;87.66;98622.84;5043647;28;20238;-61
2023/01/11 05:06:52;;;;;;;0.53;0.17;;;;;;;9.52;88.02;98631.00;5048223;28;20722;-62
2023/01/11 05:09:18;;;;;;;0.10;0.10;;;;;;;9.55;88.07;98620.25;5044900;28;20228;-62
2023/01/11 05:11:45;;;;;;;2.47;1.60;;;;;;;9.50;88.96;98622.50;5052873;28;20297;-62
2023/01/11 05:14:14;;;;;;;0.67;0.40;;;;;;;9.53;88.17;98611.78;5038957;28;20230;-62
2023/01/11 05:16:40;;;;;;;0.37;0.10;;;;;;;9.52;88.38;98602.31;5044832;28;20223;-62
2023/01/11 05:19:09;;;;;;;0.50;0.20;;;;;;;9.50;89.23;98606.03;5044621;28;20293;-62
2023/01/11 05:21:38;;;;;;;0.50;0.30;;;;;;;9.42;89.05;98585.91;5051908;28;20223;-62
2023/01/11 05:24:07;;;;;;;0.13;0.10;;;;;;;9.41;88.81;98576.47;5041712;28;20722;-62
2023/01/11 05:26:36;;;;;;;1.67;0.90;;;;;;;9.39;87.91;98560.97;5048889;28;20707;-61
2023/01/11 05:29:05;;;;;;;0.67;0.23;;;;;;;9.34;89.19;98567.56;5046230;28;20710;-61
2023/01/11 05:31:34;;;;;;;0.27;0.13;;;;;;;9.31;88.27;98573.88;5046901;28;20301;-60
2023/01/11 05:34:01;;;;;;;2.10;0.60;;;;;;;9.30;89.54;98573.06;5049847;28;20234;-61
2023/01/11 05:36:28;;;;;;;0.97;0.20;;;;;;;9.30;88.67;98567.88;5043412;28;20717;-61
2023/01/11 05:38:55;;;;;;;0.27;0.03;;;;;;;9.44;87.73;98557.94;5046726;28;20357;-60
2023/01/11 05:41:24;;;;;;;0.57;0.13;;;;;;;9.49;87.11;98566.13;5044354;28;20894;-61
2023/01/11 05:46:39;;;;;;;1.73;0.30;;;;;;;9.50;87.23;98554.75;5042545;28;20694;-61
2023/01/11 05:49:07;;;;;;;0.63;0.20;;;;;;;9.55;86.57;98547.28;5042830;28;20298;-61
2023/01/11 05:51:36;;;;;;;0.10;0.10;;;;;;;9.52;86.72;98542.41;5050972;28;20640;-61
2023/01/11 05:54:05;;;;;;;0.28;0.20;;;;;;;9.53;86.22;98548.41;5045059;28;20449;-61
2023/01/11 05:56:32;;;;;;;0.30;0.10;;;;;;;9.50;87.21;98548.69;5045999;28;20300;-61
2023/01/11 05:58:58;;;;;;;0.10;0.10;;;;;;;9.45;87.49;98560.38;5045024;28;20239;-61
2023/01/11 06:01:26;;;;;;;1.23;0.30;;;;;;;9.45;87.34;98556.97;5038612;28;21218;-61
2023/01/11 06:03:53;;;;;;;0.87;0.40;;;;;;;9.47;86.58;98552.44;5042808;28;20235;-61
2023/01/11 06:06:21;;;;;;;0.70;0.30;;;;;;;9.46;86.35;98561.22;5047534;28;20834;-61
2023/01/11 06:08:48;;;;;;;0.40;0.33;;;;;;;9.48;86.10;98561.88;5046650;28;20223;-60
2023/01/11 06:11:14;;;;;;;2.80;0.87;;;;;;;9.57;85.93;98568.81;5047181;28;20613;-61
2023/01/11 06:13:42;;;;;;;0.30;0.30;;;;;;;9.55;86.77;98570.75;5050668;28;20231;-61
2023/01/11 06:16:11;;;;;;;1.57;1.10;;;;;;;9.59;85.26;98553.03;5046107;28;20285;-61
2023/01/11 06:18:39;;;;;;;0.67;0.40;;;;;;;9.72;84.59;98560.50;5049034;28;20237;-61
2023/01/11 06:21:08;;;;;;;132.50;96.60;;;;;;;9.67;84.91;98563.56;5044600;28;20238;-62
2023/01/11 06:23:37;;;;;;;3.13;2.23;;;;;;;9.68;85.45;98556.53;5043372;28;20234;-61
2023/01/11 06:26:06;;;;;;;7.00;5.63;;;;;;;9.72;84.96;98565.72;5038443;28;20276;-61
2023/01/11 06:28:33;;;;;;;4.97;4.00;;;;;;;9.71;85.76;98545.81;5041712;28;20249;-61
2023/01/11 06:31:00;;;;;;;0.30;0.30;;;;;;;9.74;85.09;98543.75;5043582;28;20253;-61
2023/01/11 06:33:29;;;;;;;0.97;0.70;;;;;;;9.77;84.59;98547.84;5045374;28;20287;-60
2023/01/11 06:35:56;;;;;;;0.90;0.30;;;;;;;9.87;83.46;98542.56;5047809;28;20247;-61
2023/01/11 06:38:25;;;;;;;0.97;0.57;;;;;;;9.87;84.76;98534.75;5042304;28;20587;-61
2023/01/11 06:40:54;;;;;;;0.30;0.30;;;;;;;9.87;83.95;98526.94;5046148;28;20226;-61
2023/01/11 06:43:22;;;;;;;0.57;0.30;;;;;;;9.88;84.45;98518.94;5047824;28;20235;-61
2023/01/11 06:45:49;;;;;;;0.30;0.30;;;;;;;9.92;83.98;98514.28;5050808;28;20303;-61
2023/01/11 06:48:16;;;;;;;0.90;0.47;;;;;;;9.90;83.98;98517.00;5048971;28;20222;-61
2023/01/11 06:50:42;;;;;;;1.33;0.70;;;;;;;9.89;83.37;98507.56;5049984;28;20293;-61
2023/01/11 06:53:09;;;;;;;0.90;0.80;;;;;;;9.93;84.04;98496.81;5048566;28;20277;-61
2023/01/11 06:55:37;;;;;;;1.03;0.70;;;;;;;9.88;83.88;98497.28;5053060;28;20231;-61
2023/01/11 06:58:03;;;;;;;0.60;0.50;;;;;;;9.96;83.95;98494.75;5046285;28;20232;-61
2023/01/11 07:00:31;;;;;;;0.40;0.20;;;;;;;9.94;83.36;98506.28;5043120;28;20275;-62
2023/01/11 07:03:01;;;;;;;0.37;0.33;;;;;;;10.02;83.59;98504.59;5052112;28;20447;-61
2023/01/11 07:05:28;;;;;;;0.57;0.37;;;;;;;10.06;83.37;98509.50;5049362;28;20244;-62
2023/01/11 07:07:55;;;;;;;3.30;0.50;;;;;;;10.03;84.04;98510.59;5045092;28;20595;-63
2023/01/11 07:10:21;;;;;;;0.97;0.10;;;;;;;10.11;83.54;98491.59;5044811;28;20867;-62
2023/01/11 07:12:50;;;;;;;0.50;0.23;;;;;;;10.15;83.45;98504.19;5050718;28;20250;-62
2023/01/11 07:15:17;;;;;;;0.40;0.17;;;;;;;10.18;82.40;98509.09;5046494;28;20223;-62
2023/01/11 07:17:46;;;;;;;1.70;0.30;;;;;;;10.22;83.06;98495.75;5049947;28;20227;-62
2023/01/11 07:20:13;;;;;;;1.10;0.40;;;;;;;10.24;83.18;98492.00;5040154;28;20234;-62
2023/01/11 07:22:40;;;;;;;1.20;0.77;;;;;;;10.22;82.94;98482.72;5050036;28;20235;-62
2023/01/11 07:25:07;;;;;;;1.67;0.50;;;;;;;10.21;83.56;98475.88;5042320;28;20634;-62
2023/01/11 07:27:34;;;;;;;0.63;0.23;;;;;;;10.25;82.02;98471.97;5046116;28;20246;-62
2023/01/11 07:30:01;;;;;;;0.63;0.33;;;;;;;10.25;82.16;98478.00;5044493;28;20241;-61
2023/01/11 07:32:29;;;;;;;0.10;0.10;;;;;;;10.31;82.06;98476.59;5043639;28;20895;-61
2023/01/11 07:34:55;;;;;;;1.07;0.30;;;;;;;10.38;82.06;98472.41;5050157;28;20964;-62
2023/01/11 07:37:24;;;;;;;0.33;0.23;;;;;;;10.41;82.35;98477.34;5049547;28;20283;-61
2023/01/11 07:39:51;;;;;;;0.57;0.20;;;;;;;10.45;81.43;98490.88;5048619;28;20232;-61
2023/01/11 07:45:03;;;;;;;2.70;0.20;;;;;;;10.48;81.84;98490.59;5051324;28;20243;-61
2023/01/11 07:47:29;;;;;;;0.37;0.20;;;;;;;10.60;80.93;98488.56;5044238;28;20232;-61
2023/01/11 07:49:56;;;;;;;5.23;1.00;;;;;;;10.62;80.89;98476.13;5046709;28;20247;-62
2023/01/11 07:52:22;;;;;;;0.67;0.30;;;;;;;10.63;81.20;98469.94;5047744;28;20235;-62
2023/01/11 07:54:49;;;;;;;0.73;0.20;;;;;;;10.67;80.81;98465.25;5047903;28;20239;-61
2023/01/11 07:57:15;;;;;;;0.20;0.20;;;;;;;10.64;81.03;98479.41;5042410;28;20226;-62
2023/01/11 07:59:42;;;;;;;0.27;0.10;;;;;;;10.63;81.20;98468.16;5050046;28;20281;-61
2023/01/11 08:02:11;;;;;;;0.60;0.30;;;;;;;10.67;81.76;98453.00;5043374;28;20240;-61
2023/01/11 08:04:38;;;;;;;0.33;0.10;;;;;;;10.63;81.48;98472.56;5043550;28;20295;-60
2023/01/11 08:07:04;;;;;;;0.30;0.10;;;;;;;10.65;82.63;98482.84;5049612;28;20236;-61
2023/01/11 08:09:31;;;;;;;0.50;0.10;;;;;;;10.65;81.84;98493.28;5049901;28;20233;-61
2023/01/11 08:14:42;;;;;;;0.20;0.20;;;;;;;10.72;82.08;98479.44;5042815;28;20307;-62
2023/01/11 08:17:13;;;;;;;0.50;0.20;;;;;;;10.67;82.26;98489.53;5044359;28;20240;-62
2023/01/11 08:19:40;;;;;;;0.13;0.13;;;;;;;10.68;82.30;98506.84;5047445;28;20750;-61
2023/01/11 08:22:06;;;;;;;0.20;0.20;;;;;;;10.67;82.45;98499.19;5046389;28;20224;-61
2023/01/11 08:24:34;;;;;;;1.13;0.30;;;;;;;10.67;81.89;98497.38;5045922;28;20232;-61
2023/01/11 08:27:01;;;;;;;0.40;0.30;;;;;;;10.72;81.37;98509.97;5049287;28;20232;-62
2023/01/11 08:29:27;;;;;;;0.27;0.27;;;;;;;10.77;81.52;98508.53;5048097;28;20232;-62
2023/01/11 08:31:54;;;;;;;0.23;0.20;;;;;;;10.83;80.71;98512.31;5045408;28;20231;-62
2023/01/11 08:34:22;;;;;;;0.53;0.20;;;;;;;10.83;81.48;98516.72;5043197;28;20223;-62
2023/01/11 08:36:48;;;;;;;0.73;0.50;;;;;;;10.81;81.68;98522.09;5047438;28;20236;-62
2023/01/11 08:39:15;;;;;;;0.30;0.20;;;;;;;10.83;82.93;98528.00;5041541;28;20237;-62
2023/01/11 08:41:41;;;;;;;0.50;0.30;;;;;;;10.77;84.15;98521.56;5050242;28;20720;-62
2023/01/11 08:44:09;;;;;;;0.53;0.30;;;;;;;10.77;85.68;98533.84;5037814;28;20240;-62
2023/01/11 08:46:36;;;;;;;0.20;0.20;;;;;;;10.72;87.40;98509.97;5048936;28;20255;-62
2023/01/11 08:49:03;;;;;;;1.10;0.23;;;;;;;10.65;90.75;98529.84;5046219;28;20286;-62
2023/01/11 08:51:31;;;;;;;0.20;0.20;;;;;;;10.48;93.47;98535.78;5050116;28;20291;-61
2023/01/11 08:53:58;;;;;;;0.77;0.30;;;;;;;10.31;95.50;98528.78;5046153;28;20236;-62
2023/01/11 08:56:24;;;;;;;0.20;0.20;;;;;;;10.24;98.56;98538.97;5039782;28;20294;-61
2023/01/11 08:58:51;;;;;;;0.40;0.20;;;;;;;10.10;100.00;98537.72;5046815;28;20220;-62
2023/01/11 09:01:17;;;;;;;2.23;0.30;;;;;;;10.02;100.00;98540.25;5039900;28;20286;-62
2023/01/11 09:03:44;;;;;;;0.10;0.10;;;;;;;9.98;100.00;98541.53;5041603;28;20238;-62
2023/01/11 09:06:10;;;;;;;0.60;0.40;;;;;;;9.98;100.00;98538.91;5039935;28;20234;-62
2023/01/11 09:08:38;;;;;;;1.13;0.60;;;;;;;9.94;100.00;98550.63;5047911;28;20248;-62
2023/01/11 09:11:52;;;;;;;1.53;0.60;;;;;;;9.90;100.00;98547.50;5046708;28;20259;-62
2023/01/11 09:13:52;;;;;;;1.47;1.30;;;;;;;9.87;100.00;98546.00;5045828;28;20254;-62
2023/01/11 09:16:18;;;;;;;0.97;0.30;;;;;;;9.86;100.00;98552.16;5040093;28;20224;-62
2023/01/11 09:18:45;;;;;;;0.40;0.30;;;;;;;9.87;100.00;98539.97;5043438;28;20238;-61
2023/01/11 09:21:11;;;;;;;0.30;0.20;;;;;;;9.84;100.00;98533.25;5040237;28;20234;-61
2023/01/11 09:23:39;;;;;;;0.23;0.20;;;;;;;9.82;100.00;98529.97;5045824;28;20234;-61
2023/01/11 09:26:06;;;;;;;0.90;0.20;;;;;;;9.80;100.00;98531.91;5044092;28;20230;-61
2023/01/11 09:28:33;;;;;;;0.63;0.20;;;;;;;9.82;100.00;98535.19;5045315;28;20235;-61
2023/01/11 09:30:59;;;;;;;0.40;0.30;;;;;;;9.83;100.00;98518.56;5041235;28;20678;-63
2023/01/11 09:33:26;;;;;;;0.60;0.30;;;;;;;9.87;100.00;98517.31;5039351;28;20845;-62
2023/01/11 09:35:54;;;;;;;0.73;0.20;;;;;;;9.94;100.00;98514.09;5039559;28;20293;-62
2023/01/11 09:38:24;;;;;;;1.13;0.20;;;;;;;10.04;100.00;98535.72;5035086;28;20210;-62
2023/01/11 09:41:00;;;;;;;0.13;0.10;;;;;;;10.07;100.00;98538.03;5043835;28;20695;-62
2023/01/11 09:43:30;;;;;;;0.90;0.30;;;;;;;10.10;100.00;98540.34;5034319;28;20227;-62
2023/01/11 09:46:01;;;;;;;0.43;0.20;;;;;;;10.07;100.00;98556.28;5043334;28;20655;-62
2023/01/11 09:48:35;;;;;;;0.77;0.30;;;;;;;10.08;100.00;98538.81;5035595;28;20236;-61
2023/01/11 09:51:03;;;;;;;0.43;0.40;;;;;;;10.09;100.00;98553.50;5043203;28;20256;-62
2023/01/11 09:53:36;;;;;;;0.97;0.30;;;;;;;10.07;100.00;98545.84;5041578;28;20330;-62
2023/01/11 09:56:11;;;;;;;0.50;0.47;;;;;;;10.09;100.00;98543.06;5040683;28;20617;-61
2023/01/11 09:59:04;;;;;;;0.20;0.20;;;;;;;10.09;100.00;98550.91;5037010;28;20222;-61
2023/01/11 10:01:37;;;;;;;0.43;0.27;;;;;;;9.96;100.00;98548.69;5033258;28;20245;-60
2023/01/11 10:04:35;;;;;;;0.43;0.30;;;;;;;10.00;100.00;98557.84;5040802;28;20233;-61
2023/01/11 10:07:17;;;;;;;0.20;0.20;;;;;;;9.98;100.00;98551.94;5047258;28;20254;-60
2023/01/11 10:10:00;;;;;;;0.20;0.20;;;;;;;9.96;100.00;98554.72;5047478;28;20295;-61
2023/01/11 10:12:36;;;;;;;1.17;0.33;;;;;;;10.00;100.00;98539.59;5045078;28;20238;-61
2023/01/11 10:15:12;;;;;;;2.40;0.20;;;;;;;9.97;100.00;98542.50;5046339;28;20236;-61
2023/01/11 10:17:47;;;;;;;0.40;0.20;;;;;;;9.92;100.00;98536.91;5047837;28;20227;-61
2023/01/11 10:20:23;;;;;;;0.27;0.20;;;;;;;10.01;100.00;98536.84;5045116;28;21169;-60
2023/01/11 10:22:55;;;;;;;1.43;0.40;;;;;;;10.00;100.00;98547.41;5045575;28;20233;-59
2023/01/11 10:25:32;;;;;;;0.20;0.20;;;;;;;9.97;100.00;98534.66;5046288;28;22530;-61
2023/01/11 10:28:05;;;;;;;0.43;0.30;;;;;;;10.05;100.00;98534.75;5047679;28;20253;-61
2023/01/11 10:30:50;;;;;;;0.60;0.60;;;;;;;10.03;100.00;98536.69;5041653;28;20227;-61
2023/01/11 10:33:37;;;;;;;1.27;0.43;;;;;;;10.01;100.00;98543.84;5046518;28;20276;-60
2023/01/11 10:36:24;;;;;;;1.07;0.30;;;;;;;9.98;100.00;98547.56;5047266;28;20231;-61
2023/01/11 10:39:10;;;;;;;0.80;0.30;;;;;;;10.01;100.00;98544.66;5046427;28;20238;-61
2023/01/11 10:41:49;;;;;;;0.47;0.27;;;;;;;10.00;100.00;98536.97;5032663;28;20649;-62
2023/01/11 10:44:29;;;;;;;0.40;0.30;;;;;;;10.04;100.00;98540.94;5044770;28;20227;-62
2023/01/11 10:46:58;;;;;;;0.47;0.43;;;;;;;10.07;100.00;98539.81;5052532;28;20231;-62
2023/01/11 10:49:36;;;;;;;0.60;0.27;;;;;;;9.98;100.00;98544.13;5046982;28;20595;-62
2023/01/11 10:52:13;;;;;;;1.30;0.20;;;;;;;9.98;100.00;98541.53;5044656;28;20330;-62
2023/01/11 10:54:44;;;;;;;1.27;1.03;;;;;;;9.94;100.00;98543.63;5050912;28;20799;-61
2023/01/11 10:57:21;;;;;;;3.13;2.57;;;;;;;10.01;100.00;98542.06;5051181;28;20938;-61
2023/01/11 11:00:09;;;;;;;0.53;0.40;;;;;;;10.04;100.00;98531.34;5048658;28;20586;-62
2023/01/11 11:02:55;;;;;;;0.40;0.30;;;;;;;10.02;100.00;98533.28;5048430;28;20244;-61
2023/01/11 11:05:30;;;;;;;1.13;0.30;;;;;;;10.02;100.00;98551.53;5044731;28;21164;-60
2023/01/11 11:08:01;;;;;;;1.40;0.33;;;;;;;10.07;100.00;98537.22;5052606;28;20230;-62
2023/01/11 11:10:34;;;;;;;0.40;0.40;;;;;;;10.11;100.00;98543.75;5042892;28;20228;-62
2023/01/11 11:13:11;;;;;;;5.20;1.50;;;;;;;10.17;100.00;98533.56;5049284;28;20224;-62
2023/01/11 11:15:45;;;;;;;24.30;11.27;;;;;;;10.15;100.00;98532.03;5047638;28;20295;-62
2023/01/11 11:18:12;;;;;;;1.77;1.63;;;;;;;10.06;100.00;98540.78;5048032;28;20230;-62
2023/01/11 11:20:39;;;;;;;9.40;7.63;;;;;;;10.08;100.00;98539.66;5050302;28;20643;-62
2023/01/11 11:23:06;;;;;;;14.10;12.70;;;;;;;10.11;100.00;98544.59;5047310;28;20228;-62
2023/01/11 11:25:36;;;;;;;3.17;2.87;;;;;;;10.00;100.00;98557.84;5053936;28;20585;-61
2023/01/11 11:28:05;;;;;;;1.03;0.50;;;;;;;9.98;100.00;98542.34;5041818;28;20732;-61
2023/01/11 11:30:36;;;;;;;0.90;0.60;;;;;;;9.92;100.00;98571.63;5048900;28;20306;-62
2023/01/11 11:33:08;;;;;;;0.80;0.37;;;;;;;9.95;100.00;98571.34;5046690;28;20311;-62
2023/01/11 11:35:37;;;;;;;0.93;0.33;;;;;;;9.92;100.00;98561.22;5049561;28;20252;-62
2023/01/11 11:38:05;;;;;;;0.33;0.20;;;;;;;9.85;100.00;98575.78;5044681;28;20250;-62
2023/01/11 11:40:35;;;;;;;1.60;0.23;;;;;;;9.82;100.00;98558.66;5046627;28;20226;-62
2023/01/11 11:43:17;;;;;;;0.50;0.27;;;;;;;9.85;100.00;98549.72;5043016;28;20584;-62
2023/01/11 11:45:52;;;;;;;0.30;0.30;;;;;;;9.86;100.00;98561.78;5051089;28;20311;-62
2023/01/11 11:48:20;;;;;;;2.53;0.40;;;;;;;10.01;100.00;98555.09;5035620;28;20565;-61
2023/01/11 11:50:48;;;;;;;1.43;0.57;;;;;;;9.97;100.00;98558.97;5047076;28;20231;-62
2023/01/11 11:53:35;;;;;;;2.90;1.70;;;;;;;9.93;100.00;98560.25;5040618;28;20245;-61
2023/01/11 11:56:08;;;;;;;0.60;0.43;;;;;;;9.97;100.00;98563.34;5048547;28;20228;-62
2023/01/11 11:58:40;;;;;;;1.53;0.50;;;;;;;9.87;100.00;98569.44;5048430;28;20240;-61
2023/01/11 12:01:18;;;;;;;1.57;0.50;;;;;;;9.87;100.00;98577.28;5050161;28;20700;-62
2023/01/11 12:03:48;;;;;;;0.77;0.50;;;;;;;9.72;100.00;98558.72;5047132;28;20243;-62
2023/01/11 12:06:23;;;;;;;2.30;0.50;;;;;;;9.85;100.00;98563.56;5046826;28;20219;-62
2023/01/11 12:08:50;;;;;;;0.40;0.40;;;;;;;9.81;100.00;98557.00;5049165;28;20251;-62
2023/01/11 12:11:23;;;;;;;0.80;0.50;;;;;;;9.82;100.00;98560.44;5047029;28;20707;-62
2023/01/11 12:14:01;;;;;;;2.30;0.90;;;;;;;9.85;100.00;98555.75;5035974;28;20306;-62
2023/01/11 12:16:34;;;;;;;0.20;0.20;;;;;;;9.75;100.00;98555.00;5038638;28;20235;-62